sensor_id;sensor_type;location;lat;lon;timestamp;P1;durP1;ratioP1;P2;durP2;ratioP2
37791;SDS011;29527;55.766;37.570;2022-12-05T00:01:31;15.27;;;6.95;;
37791;SDS011;29527;55.766;37.570;2022-12-05T00:03:59;13.15;;;6.30;;
37791;SDS011;29527;55.766;37.570;2022-12-05T00:06:28;13.98;;;6.28;;
37791;SDS011;29527;55.766;37.570;2022-12-05T00:08:54;13.63;;;6.60;;
37791;SDS011;29527;55.766;37.570;2022-12-05T00:11:21;14.00;;;6.93;;
37791;SDS011;29527;55.766;37.570;2022-12-05T00:13:50;16.13;;;6.57;;
37791;SDS011;29527;55.766;37.570;2022-12-05T00:16:18;15.10;;;6.65;;
37791;SDS011;29527;55.766;37.570;2022-12-05T00:18:45;12.57;;;6.07;;
37791;SDS011;29527;55.766;37.570;2022-12-05T00:21:12;14.05;;;7.00;;
37791;SDS011;29527;55.766;37.570;2022-12-05T00:23:39;15.75;;;6.53;;
37791;SDS011;29527;55.766;37.570;2022-12-05T00:26:05;13.55;;;6.25;;
37791;SDS011;29527;55.766;37.570;2022-12-05T00:28:31;13.70;;;6.30;;
37791;SDS011;29527;55.766;37.570;2022-12-05T00:31:02;13.32;;;6.45;;
37791;SDS011;29527;55.766;37.570;2022-12-05T00:33:28;16.83;;;6.65;;
37791;SDS011;29527;55.766;37.570;2022-12-05T00:35:54;12.07;;;5.55;;
37791;SDS011;29527;55.766;37.570;2022-12-05T00:38:19;12.75;;;6.80;;
37791;SDS011;29527;55.766;37.570;2022-12-05T00:40:45;14.07;;;6.53;;
37791;SDS011;29527;55.766;37.570;2022-12-05T00:43:10;13.45;;;6.22;;
37791;SDS011;29527;55.766;37.570;2022-12-05T00:45:36;13.65;;;6.03;;
37791;SDS011;29527;55.766;37.570;2022-12-05T00:48:01;16.17;;;6.82;;
37791;SDS011;29527;55.766;37.570;2022-12-05T00:50:27;13.32;;;6.40;;
37791;SDS011;29527;55.766;37.570;2022-12-05T00:52:52;14.98;;;6.07;;
37791;SDS011;29527;55.766;37.570;2022-12-05T00:55:17;15.75;;;6.72;;
37791;SDS011;29527;55.766;37.570;2022-12-05T00:57:43;14.02;;;6.43;;
37791;SDS011;29527;55.766;37.570;2022-12-05T01:00:08;15.80;;;7.03;;
37791;SDS011;29527;55.766;37.570;2022-12-05T01:02:34;12.52;;;6.32;;
37791;SDS011;29527;55.766;37.570;2022-12-05T01:04:59;13.85;;;6.45;;
37791;SDS011;29527;55.766;37.570;2022-12-05T01:07:25;12.73;;;6.57;;
37791;SDS011;29527;55.766;37.570;2022-12-05T01:09:50;15.27;;;6.55;;
37791;SDS011;29527;55.766;37.570;2022-12-05T01:12:15;13.63;;;6.25;;
37791;SDS011;29527;55.766;37.570;2022-12-05T01:14:41;13.32;;;6.32;;
37791;SDS011;29527;55.766;37.570;2022-12-05T01:17:06;15.60;;;6.07;;
37791;SDS011;29527;55.766;37.570;2022-12-05T01:19:32;11.55;;;5.93;;
37791;SDS011;29527;55.766;37.570;2022-12-05T01:21:57;15.82;;;6.05;;
37791;SDS011;29527;55.766;37.570;2022-12-05T01:24:24;14.60;;;6.32;;
37791;SDS011;29527;55.766;37.570;2022-12-05T01:26:50;16.50;;;6.43;;
37791;SDS011;29527;55.766;37.570;2022-12-05T01:29:17;17.08;;;6.47;;
37791;SDS011;29527;55.766;37.570;2022-12-05T01:31:43;13.30;;;6.65;;
37791;SDS011;29527;55.766;37.570;2022-12-05T01:34:10;13.60;;;5.85;;
37791;SDS011;29527;55.766;37.570;2022-12-05T01:36:37;13.30;;;6.25;;
37791;SDS011;29527;55.766;37.570;2022-12-05T01:39:04;10.80;;;5.70;;
37791;SDS011;29527;55.766;37.570;2022-12-05T01:41:32;12.65;;;6.25;;
37791;SDS011;29527;55.766;37.570;2022-12-05T01:44:06;21.70;;;5.55;;
37791;SDS011;29527;55.766;37.570;2022-12-05T01:46:33;11.38;;;5.63;;
37791;SDS011;29527;55.766;37.570;2022-12-05T01:49:02;15.55;;;5.85;;
37791;SDS011;29527;55.766;37.570;2022-12-05T01:51:32;13.18;;;5.72;;
37791;SDS011;29527;55.766;37.570;2022-12-05T01:53:58;14.20;;;5.93;;
37791;SDS011;29527;55.766;37.570;2022-12-05T01:56:25;12.32;;;5.53;;
37791;SDS011;29527;55.766;37.570;2022-12-05T01:58:50;11.32;;;5.82;;
37791;SDS011;29527;55.766;37.570;2022-12-05T02:01:17;13.52;;;6.22;;
37791;SDS011;29527;55.766;37.570;2022-12-05T02:03:45;13.05;;;5.60;;
37791;SDS011;29527;55.766;37.570;2022-12-05T02:06:13;18.70;;;5.95;;
37791;SDS011;29527;55.766;37.570;2022-12-05T02:08:38;11.68;;;6.15;;
37791;SDS011;29527;55.766;37.570;2022-12-05T02:11:05;13.55;;;5.40;;
37791;SDS011;29527;55.766;37.570;2022-12-05T02:13:51;16.05;;;5.28;;
37791;SDS011;29527;55.766;37.570;2022-12-05T02:16:45;13.48;;;6.28;;
37791;SDS011;29527;55.766;37.570;2022-12-05T02:28:08;11.30;;;5.30;;
37791;SDS011;29527;55.766;37.570;2022-12-05T02:36:07;14.02;;;5.78;;
37791;SDS011;29527;55.766;37.570;2022-12-05T02:41:36;14.38;;;5.82;;
37791;SDS011;29527;55.766;37.570;2022-12-05T02:44:19;11.35;;;5.78;;
37791;SDS011;29527;55.766;37.570;2022-12-05T02:46:48;11.63;;;5.35;;
37791;SDS011;29527;55.766;37.570;2022-12-05T02:49:21;13.35;;;6.15;;
37791;SDS011;29527;55.766;37.570;2022-12-05T02:51:51;10.82;;;5.53;;
37791;SDS011;29527;55.766;37.570;2022-12-05T02:54:20;11.52;;;5.40;;
37791;SDS011;29527;55.766;37.570;2022-12-05T02:56:48;15.32;;;5.82;;
37791;SDS011;29527;55.766;37.570;2022-12-05T02:59:14;12.68;;;5.18;;
37791;SDS011;29527;55.766;37.570;2022-12-05T03:01:42;13.27;;;4.82;;
37791;SDS011;29527;55.766;37.570;2022-12-05T03:04:08;12.75;;;5.35;;
37791;SDS011;29527;55.766;37.570;2022-12-05T03:06:44;13.70;;;5.60;;
37791;SDS011;29527;55.766;37.570;2022-12-05T03:09:17;14.52;;;5.70;;
37791;SDS011;29527;55.766;37.570;2022-12-05T03:11:46;14.55;;;5.90;;
37791;SDS011;29527;55.766;37.570;2022-12-05T03:14:25;11.50;;;5.53;;
37791;SDS011;29527;55.766;37.570;2022-12-05T03:16:58;10.80;;;5.32;;
37791;SDS011;29527;55.766;37.570;2022-12-05T03:19:29;11.63;;;5.65;;
37791;SDS011;29527;55.766;37.570;2022-12-05T03:22:06;10.63;;;5.05;;
37791;SDS011;29527;55.766;37.570;2022-12-05T03:24:35;12.07;;;5.82;;
37791;SDS011;29527;55.766;37.570;2022-12-05T03:28:05;12.38;;;5.47;;
37791;SDS011;29527;55.766;37.570;2022-12-05T03:30:10;10.30;;;5.13;;
37791;SDS011;29527;55.766;37.570;2022-12-05T03:40:55;13.13;;;5.35;;
37791;SDS011;29527;55.766;37.570;2022-12-05T03:43:37;13.75;;;5.57;;
37791;SDS011;29527;55.766;37.570;2022-12-05T03:46:17;10.98;;;5.40;;
37791;SDS011;29527;55.766;37.570;2022-12-05T03:54:24;12.70;;;5.57;;
37791;SDS011;29527;55.766;37.570;2022-12-05T03:56:57;10.75;;;5.47;;
37791;SDS011;29527;55.766;37.570;2022-12-05T03:59:36;10.35;;;5.03;;
37791;SDS011;29527;55.766;37.570;2022-12-05T04:02:20;15.25;;;5.78;;
37791;SDS011;29527;55.766;37.570;2022-12-05T04:07:30;10.75;;;5.10;;
37791;SDS011;29527;55.766;37.570;2022-12-05T04:10:01;11.45;;;4.90;;
37791;SDS011;29527;55.766;37.570;2022-12-05T04:12:30;13.38;;;5.28;;
37791;SDS011;29527;55.766;37.570;2022-12-05T04:15:01;12.10;;;4.95;;
37791;SDS011;29527;55.766;37.570;2022-12-05T04:17:35;10.85;;;5.30;;
37791;SDS011;29527;55.766;37.570;2022-12-05T04:20:17;11.27;;;5.68;;
37791;SDS011;29527;55.766;37.570;2022-12-05T04:23:05;12.95;;;4.93;;
37791;SDS011;29527;55.766;37.570;2022-12-05T04:25:36;11.18;;;5.47;;
37791;SDS011;29527;55.766;37.570;2022-12-05T04:33:33;13.68;;;5.93;;
37791;SDS011;29527;55.766;37.570;2022-12-05T04:38:56;10.05;;;4.75;;
37791;SDS011;29527;55.766;37.570;2022-12-05T04:41:31;11.32;;;5.03;;
37791;SDS011;29527;55.766;37.570;2022-12-05T04:44:07;11.55;;;5.50;;
37791;SDS011;29527;55.766;37.570;2022-12-05T04:46:36;10.45;;;5.07;;
37791;SDS011;29527;55.766;37.570;2022-12-05T04:49:05;10.65;;;5.43;;
37791;SDS011;29527;55.766;37.570;2022-12-05T04:51:35;12.68;;;5.43;;
37791;SDS011;29527;55.766;37.570;2022-12-05T04:54:04;8.98;;;4.80;;
37791;SDS011;29527;55.766;37.570;2022-12-05T04:56:38;11.70;;;5.47;;
37791;SDS011;29527;55.766;37.570;2022-12-05T04:59:08;14.93;;;5.50;;
37791;SDS011;29527;55.766;37.570;2022-12-05T05:04:35;11.57;;;5.13;;
37791;SDS011;29527;55.766;37.570;2022-12-05T05:07:06;10.43;;;5.37;;
37791;SDS011;29527;55.766;37.570;2022-12-05T05:09:36;15.00;;;6.05;;
37791;SDS011;29527;55.766;37.570;2022-12-05T05:12:03;9.75;;;4.78;;
37791;SDS011;29527;55.766;37.570;2022-12-05T05:14:29;11.45;;;5.15;;
37791;SDS011;29527;55.766;37.570;2022-12-05T05:16:54;13.07;;;5.15;;
37791;SDS011;29527;55.766;37.570;2022-12-05T05:19:20;11.85;;;5.18;;
37791;SDS011;29527;55.766;37.570;2022-12-05T05:21:46;12.27;;;5.35;;
37791;SDS011;29527;55.766;37.570;2022-12-05T05:24:13;12.93;;;6.15;;
37791;SDS011;29527;55.766;37.570;2022-12-05T05:26:40;11.32;;;5.25;;
37791;SDS011;29527;55.766;37.570;2022-12-05T05:29:07;10.85;;;4.95;;
37791;SDS011;29527;55.766;37.570;2022-12-05T05:31:34;10.80;;;5.30;;
37791;SDS011;29527;55.766;37.570;2022-12-05T05:34:00;12.48;;;5.53;;
37791;SDS011;29527;55.766;37.570;2022-12-05T05:36:26;11.43;;;5.32;;
37791;SDS011;29527;55.766;37.570;2022-12-05T05:38:56;9.48;;;4.88;;
37791;SDS011;29527;55.766;37.570;2022-12-05T05:41:25;10.20;;;5.30;;
37791;SDS011;29527;55.766;37.570;2022-12-05T05:43:58;14.17;;;5.00;;
37791;SDS011;29527;55.766;37.570;2022-12-05T05:46:25;13.63;;;5.75;;
37791;SDS011;29527;55.766;37.570;2022-12-05T05:48:55;10.18;;;5.00;;
37791;SDS011;29527;55.766;37.570;2022-12-05T05:51:21;11.15;;;5.18;;
37791;SDS011;29527;55.766;37.570;2022-12-05T05:53:47;11.70;;;5.68;;
37791;SDS011;29527;55.766;37.570;2022-12-05T05:56:17;13.80;;;5.50;;
37791;SDS011;29527;55.766;37.570;2022-12-05T05:58:43;14.32;;;6.03;;
37791;SDS011;29527;55.766;37.570;2022-12-05T06:03:37;10.45;;;5.43;;
37791;SDS011;29527;55.766;37.570;2022-12-05T06:06:04;9.90;;;4.88;;
37791;SDS011;29527;55.766;37.570;2022-12-05T06:08:32;9.30;;;5.07;;
37791;SDS011;29527;55.766;37.570;2022-12-05T06:11:03;10.02;;;5.07;;
37791;SDS011;29527;55.766;37.570;2022-12-05T06:13:29;13.00;;;5.47;;
37791;SDS011;29527;55.766;37.570;2022-12-05T06:15:54;12.10;;;5.07;;
37791;SDS011;29527;55.766;37.570;2022-12-05T06:18:20;14.00;;;6.25;;
37791;SDS011;29527;55.766;37.570;2022-12-05T06:20:52;13.73;;;5.38;;
37791;SDS011;29527;55.766;37.570;2022-12-05T06:23:18;10.70;;;4.47;;
37791;SDS011;29527;55.766;37.570;2022-12-05T06:25:48;14.75;;;5.00;;
37791;SDS011;29527;55.766;37.570;2022-12-05T06:28:15;13.50;;;4.88;;
37791;SDS011;29527;55.766;37.570;2022-12-05T06:30:41;13.48;;;5.05;;
37791;SDS011;29527;55.766;37.570;2022-12-05T06:33:06;9.98;;;4.47;;
37791;SDS011;29527;55.766;37.570;2022-12-05T06:35:32;11.52;;;5.50;;
37791;SDS011;29527;55.766;37.570;2022-12-05T06:37:57;9.98;;;4.97;;
37791;SDS011;29527;55.766;37.570;2022-12-05T06:40:23;10.95;;;5.15;;
37791;SDS011;29527;55.766;37.570;2022-12-05T06:42:48;10.38;;;4.70;;
37791;SDS011;29527;55.766;37.570;2022-12-05T06:45:14;11.23;;;5.28;;
37791;SDS011;29527;55.766;37.570;2022-12-05T06:47:39;12.25;;;4.93;;
37791;SDS011;29527;55.766;37.570;2022-12-05T06:50:05;10.82;;;4.13;;
37791;SDS011;29527;55.766;37.570;2022-12-05T06:52:31;12.32;;;5.20;;
37791;SDS011;29527;55.766;37.570;2022-12-05T06:54:56;7.70;;;4.70;;
37791;SDS011;29527;55.766;37.570;2022-12-05T06:57:24;8.95;;;4.65;;
37791;SDS011;29527;55.766;37.570;2022-12-05T06:59:49;9.60;;;5.10;;
37791;SDS011;29527;55.766;37.570;2022-12-05T07:02:15;10.13;;;5.20;;
37791;SDS011;29527;55.766;37.570;2022-12-05T07:04:40;8.52;;;5.10;;
37791;SDS011;29527;55.766;37.570;2022-12-05T07:07:06;10.82;;;5.70;;
37791;SDS011;29527;55.766;37.570;2022-12-05T07:09:31;9.02;;;5.63;;
37791;SDS011;29527;55.766;37.570;2022-12-05T07:12:16;8.95;;;4.88;;
37791;SDS011;29527;55.766;37.570;2022-12-05T07:14:43;10.63;;;5.72;;
37791;SDS011;29527;55.766;37.570;2022-12-05T07:17:09;11.60;;;5.38;;
37791;SDS011;29527;55.766;37.570;2022-12-05T07:19:35;9.52;;;5.45;;
37791;SDS011;29527;55.766;37.570;2022-12-05T07:22:01;11.38;;;5.80;;
37791;SDS011;29527;55.766;37.570;2022-12-05T07:24:26;12.88;;;5.75;;
37791;SDS011;29527;55.766;37.570;2022-12-05T07:26:52;12.35;;;5.97;;
37791;SDS011;29527;55.766;37.570;2022-12-05T07:29:17;11.13;;;5.30;;
37791;SDS011;29527;55.766;37.570;2022-12-05T07:31:43;10.90;;;5.43;;
37791;SDS011;29527;55.766;37.570;2022-12-05T07:34:09;15.07;;;6.03;;
37791;SDS011;29527;55.766;37.570;2022-12-05T07:36:35;13.77;;;5.90;;
37791;SDS011;29527;55.766;37.570;2022-12-05T07:39:00;12.85;;;6.60;;
37791;SDS011;29527;55.766;37.570;2022-12-05T07:41:26;15.63;;;6.05;;
37791;SDS011;29527;55.766;37.570;2022-12-05T07:43:54;11.63;;;5.50;;
37791;SDS011;29527;55.766;37.570;2022-12-05T07:46:21;15.35;;;5.70;;
37791;SDS011;29527;55.766;37.570;2022-12-05T07:48:48;10.52;;;5.45;;
37791;SDS011;29527;55.766;37.570;2022-12-05T07:51:14;11.63;;;5.65;;
37791;SDS011;29527;55.766;37.570;2022-12-05T07:53:40;14.85;;;5.85;;
37791;SDS011;29527;55.766;37.570;2022-12-05T07:56:08;11.43;;;5.68;;
37791;SDS011;29527;55.766;37.570;2022-12-05T07:58:35;11.82;;;5.85;;
37791;SDS011;29527;55.766;37.570;2022-12-05T08:01:05;12.82;;;5.53;;
37791;SDS011;29527;55.766;37.570;2022-12-05T08:03:51;14.38;;;5.60;;
37791;SDS011;29527;55.766;37.570;2022-12-05T08:06:20;10.68;;;5.97;;
37791;SDS011;29527;55.766;37.570;2022-12-05T08:08:47;14.75;;;5.75;;
37791;SDS011;29527;55.766;37.570;2022-12-05T08:11:20;12.93;;;5.45;;
37791;SDS011;29527;55.766;37.570;2022-12-05T08:13:51;10.45;;;5.63;;
37791;SDS011;29527;55.766;37.570;2022-12-05T08:16:18;11.07;;;5.20;;
37791;SDS011;29527;55.766;37.570;2022-12-05T08:18:45;11.98;;;5.72;;
37791;SDS011;29527;55.766;37.570;2022-12-05T08:21:15;10.35;;;5.15;;
37791;SDS011;29527;55.766;37.570;2022-12-05T08:23:42;11.02;;;5.20;;
37791;SDS011;29527;55.766;37.570;2022-12-05T08:26:10;11.40;;;6.03;;
37791;SDS011;29527;55.766;37.570;2022-12-05T08:28:38;12.27;;;5.30;;
37791;SDS011;29527;55.766;37.570;2022-12-05T08:31:08;13.75;;;5.82;;
37791;SDS011;29527;55.766;37.570;2022-12-05T08:33:36;14.73;;;5.75;;
37791;SDS011;29527;55.766;37.570;2022-12-05T08:36:02;13.73;;;6.57;;
37791;SDS011;29527;55.766;37.570;2022-12-05T08:38:30;13.50;;;5.85;;
37791;SDS011;29527;55.766;37.570;2022-12-05T08:40:57;11.40;;;5.90;;
37791;SDS011;29527;55.766;37.570;2022-12-05T08:43:26;10.73;;;5.18;;
37791;SDS011;29527;55.766;37.570;2022-12-05T08:45:52;15.15;;;6.15;;
37791;SDS011;29527;55.766;37.570;2022-12-05T08:48:18;13.63;;;5.15;;
37791;SDS011;29527;55.766;37.570;2022-12-05T08:50:44;11.57;;;4.65;;
37791;SDS011;29527;55.766;37.570;2022-12-05T08:53:09;13.40;;;5.85;;
37791;SDS011;29527;55.766;37.570;2022-12-05T08:55:35;13.23;;;5.88;;
37791;SDS011;29527;55.766;37.570;2022-12-05T08:58:01;13.30;;;5.18;;
37791;SDS011;29527;55.766;37.570;2022-12-05T09:00:26;13.85;;;6.15;;
37791;SDS011;29527;55.766;37.570;2022-12-05T09:02:52;16.35;;;6.43;;
37791;SDS011;29527;55.766;37.570;2022-12-05T09:05:17;13.02;;;5.88;;
37791;SDS011;29527;55.766;37.570;2022-12-05T09:07:43;17.20;;;6.07;;
37791;SDS011;29527;55.766;37.570;2022-12-05T09:10:08;13.27;;;5.60;;
37791;SDS011;29527;55.766;37.570;2022-12-05T09:12:37;10.00;;;5.60;;
37791;SDS011;29527;55.766;37.570;2022-12-05T09:15:04;14.60;;;5.43;;
37791;SDS011;29527;55.766;37.570;2022-12-05T09:17:30;14.73;;;5.28;;
37791;SDS011;29527;55.766;37.570;2022-12-05T09:19:56;14.95;;;4.97;;
37791;SDS011;29527;55.766;37.570;2022-12-05T09:22:21;13.02;;;5.07;;
37791;SDS011;29527;55.766;37.570;2022-12-05T09:24:47;12.55;;;5.88;;
37791;SDS011;29527;55.766;37.570;2022-12-05T09:27:13;12.52;;;5.50;;
37791;SDS011;29527;55.766;37.570;2022-12-05T09:29:38;11.52;;;5.07;;
37791;SDS011;29527;55.766;37.570;2022-12-05T09:32:04;11.45;;;5.45;;
37791;SDS011;29527;55.766;37.570;2022-12-05T09:34:29;13.43;;;5.03;;
37791;SDS011;29527;55.766;37.570;2022-12-05T09:36:55;14.90;;;6.20;;
37791;SDS011;29527;55.766;37.570;2022-12-05T09:39:21;14.55;;;5.43;;
37791;SDS011;29527;55.766;37.570;2022-12-05T09:50:26;11.23;;;5.72;;
37791;SDS011;29527;55.766;37.570;2022-12-05T09:53:38;13.45;;;5.70;;
37791;SDS011;29527;55.766;37.570;2022-12-05T09:56:05;12.57;;;5.68;;
37791;SDS011;29527;55.766;37.570;2022-12-05T10:17:57;10.40;;;5.05;;
37791;SDS011;29527;55.766;37.570;2022-12-05T10:20:39;10.10;;;5.07;;
37791;SDS011;29527;55.766;37.570;2022-12-05T10:23:14;6.55;;;4.00;;
37791;SDS011;29527;55.766;37.570;2022-12-05T10:25:46;10.50;;;4.85;;
37791;SDS011;29527;55.766;37.570;2022-12-05T10:28:35;9.50;;;4.68;;
37791;SDS011;29527;55.766;37.570;2022-12-05T10:31:09;9.63;;;4.70;;
37791;SDS011;29527;55.766;37.570;2022-12-05T10:36:13;9.38;;;4.65;;
37791;SDS011;29527;55.766;37.570;2022-12-05T10:38:40;11.98;;;5.45;;
37791;SDS011;29527;55.766;37.570;2022-12-05T10:41:08;11.00;;;5.10;;
37791;SDS011;29527;55.766;37.570;2022-12-05T10:43:37;8.65;;;4.50;;
37791;SDS011;29527;55.766;37.570;2022-12-05T10:46:05;10.27;;;4.00;;
37791;SDS011;29527;55.766;37.570;2022-12-05T10:48:33;10.63;;;4.80;;
37791;SDS011;29527;55.766;37.570;2022-12-05T10:51:01;11.52;;;4.78;;
37791;SDS011;29527;55.766;37.570;2022-12-05T10:53:41;9.05;;;5.07;;
37791;SDS011;29527;55.766;37.570;2022-12-05T10:59:03;7.82;;;4.15;;
37791;SDS011;29527;55.766;37.570;2022-12-05T11:01:30;9.25;;;4.60;;
37791;SDS011;29527;55.766;37.570;2022-12-05T11:03:59;10.98;;;4.90;;
37791;SDS011;29527;55.766;37.570;2022-12-05T11:06:27;9.43;;;4.82;;
37791;SDS011;29527;55.766;37.570;2022-12-05T11:08:55;11.02;;;4.80;;
37791;SDS011;29527;55.766;37.570;2022-12-05T11:11:26;9.95;;;5.22;;
37791;SDS011;29527;55.766;37.570;2022-12-05T11:13:55;9.20;;;4.57;;
37791;SDS011;29527;55.766;37.570;2022-12-05T11:16:31;14.02;;;4.40;;
37791;SDS011;29527;55.766;37.570;2022-12-05T11:21:45;11.63;;;4.68;;
37791;SDS011;29527;55.766;37.570;2022-12-05T11:24:27;12.55;;;4.72;;
37791;SDS011;29527;55.766;37.570;2022-12-05T11:26:58;9.32;;;4.65;;
37791;SDS011;29527;55.766;37.570;2022-12-05T11:29:39;11.98;;;4.20;;
37791;SDS011;29527;55.766;37.570;2022-12-05T11:32:08;8.82;;;4.53;;
37791;SDS011;29527;55.766;37.570;2022-12-05T11:35:30;12.38;;;5.05;;
37791;SDS011;29527;55.766;37.570;2022-12-05T11:37:35;8.27;;;4.30;;
37791;SDS011;29527;55.766;37.570;2022-12-05T11:40:12;7.75;;;4.22;;
37791;SDS011;29527;55.766;37.570;2022-12-05T11:45:44;8.52;;;4.32;;
37791;SDS011;29527;55.766;37.570;2022-12-05T11:48:16;7.45;;;4.13;;
37791;SDS011;29527;55.766;37.570;2022-12-05T11:50:49;9.68;;;4.40;;
37791;SDS011;29527;55.766;37.570;2022-12-05T12:04:27;10.95;;;4.72;;
37791;SDS011;29527;55.766;37.570;2022-12-05T12:13:08;8.98;;;4.28;;
37791;SDS011;29527;55.766;37.570;2022-12-05T12:18:43;8.27;;;4.10;;
37791;SDS011;29527;55.766;37.570;2022-12-05T12:21:17;7.40;;;3.90;;
37791;SDS011;29527;55.766;37.570;2022-12-05T12:35:02;9.73;;;4.85;;
37791;SDS011;29527;55.766;37.570;2022-12-05T12:50:32;9.13;;;4.65;;
37791;SDS011;29527;55.766;37.570;2022-12-05T12:58:39;7.32;;;4.13;;
37791;SDS011;29527;55.766;37.570;2022-12-05T13:04:16;9.07;;;4.43;;
37791;SDS011;29527;55.766;37.570;2022-12-05T13:06:51;9.00;;;4.13;;
37791;SDS011;29527;55.766;37.570;2022-12-05T13:09:29;13.05;;;4.63;;
37791;SDS011;29527;55.766;37.570;2022-12-05T13:12:00;10.65;;;4.22;;
37791;SDS011;29527;55.766;37.570;2022-12-05T13:14:31;10.13;;;4.75;;
37791;SDS011;29527;55.766;37.570;2022-12-05T13:16:59;9.98;;;4.40;;
37791;SDS011;29527;55.766;37.570;2022-12-05T13:22:05;15.15;;;5.22;;
37791;SDS011;29527;55.766;37.570;2022-12-05T13:24:31;9.82;;;4.63;;
37791;SDS011;29527;55.766;37.570;2022-12-05T13:26:58;14.57;;;4.38;;
37791;SDS011;29527;55.766;37.570;2022-12-05T13:29:32;15.20;;;4.13;;
37791;SDS011;29527;55.766;37.570;2022-12-05T13:32:01;6.95;;;3.97;;
37791;SDS011;29527;55.766;37.570;2022-12-05T13:36:54;17.55;;;5.18;;
37791;SDS011;29527;55.766;37.570;2022-12-05T13:39:40;9.52;;;4.63;;
37791;SDS011;29527;55.766;37.570;2022-12-05T13:42:31;10.52;;;4.65;;
37791;SDS011;29527;55.766;37.570;2022-12-05T13:47:33;9.60;;;4.80;;
37791;SDS011;29527;55.766;37.570;2022-12-05T13:50:13;12.60;;;4.47;;
37791;SDS011;29527;55.766;37.570;2022-12-05T13:52:48;10.90;;;4.50;;
37791;SDS011;29527;55.766;37.570;2022-12-05T13:57:53;12.15;;;4.40;;
37791;SDS011;29527;55.766;37.570;2022-12-05T14:00:24;8.98;;;4.57;;
37791;SDS011;29527;55.766;37.570;2022-12-05T14:03:03;11.27;;;4.70;;
37791;SDS011;29527;55.766;37.570;2022-12-05T14:05:50;11.35;;;4.18;;
37791;SDS011;29527;55.766;37.570;2022-12-05T14:15:46;15.45;;;4.78;;
37791;SDS011;29527;55.766;37.570;2022-12-05T14:38:05;10.35;;;4.70;;
37791;SDS011;29527;55.766;37.570;2022-12-05T14:40:32;11.00;;;4.85;;
37791;SDS011;29527;55.766;37.570;2022-12-05T14:47:55;18.08;;;4.70;;
37791;SDS011;29527;55.766;37.570;2022-12-05T14:55:51;7.30;;;3.67;;
37791;SDS011;29527;55.766;37.570;2022-12-05T14:58:27;9.95;;;3.88;;
37791;SDS011;29527;55.766;37.570;2022-12-05T15:01:22;5.57;;;3.30;;
37791;SDS011;29527;55.766;37.570;2022-12-05T15:04:26;9.98;;;3.42;;
37791;SDS011;29527;55.766;37.570;2022-12-05T15:06:47;8.23;;;3.75;;
37791;SDS011;29527;55.766;37.570;2022-12-05T15:09:28;9.93;;;3.90;;
37791;SDS011;29527;55.766;37.570;2022-12-05T15:12:18;8.25;;;3.83;;
37791;SDS011;29527;55.766;37.570;2022-12-05T15:17:40;8.98;;;3.92;;
37791;SDS011;29527;55.766;37.570;2022-12-05T15:20:15;10.40;;;3.92;;
37791;SDS011;29527;55.766;37.570;2022-12-05T15:22:44;8.45;;;4.25;;
37791;SDS011;29527;55.766;37.570;2022-12-05T15:25:29;9.27;;;4.50;;
37791;SDS011;29527;55.766;37.570;2022-12-05T15:27:58;10.07;;;4.43;;
37791;SDS011;29527;55.766;37.570;2022-12-05T15:30:29;10.98;;;3.70;;
37791;SDS011;29527;55.766;37.570;2022-12-05T15:32:56;9.77;;;4.07;;
37791;SDS011;29527;55.766;37.570;2022-12-05T15:35:23;6.60;;;3.90;;
37791;SDS011;29527;55.766;37.570;2022-12-05T15:37:54;9.85;;;3.97;;
37791;SDS011;29527;55.766;37.570;2022-12-05T15:40:20;9.70;;;3.72;;
37791;SDS011;29527;55.766;37.570;2022-12-05T15:45:18;9.77;;;3.67;;
37791;SDS011;29527;55.766;37.570;2022-12-05T15:47:48;8.73;;;3.83;;
37791;SDS011;29527;55.766;37.570;2022-12-05T15:53:11;15.00;;;4.45;;
37791;SDS011;29527;55.766;37.570;2022-12-05T15:55:43;10.13;;;3.92;;
37791;SDS011;29527;55.766;37.570;2022-12-05T15:58:23;8.57;;;4.20;;
37791;SDS011;29527;55.766;37.570;2022-12-05T16:01:38;6.60;;;3.67;;
37791;SDS011;29527;55.766;37.570;2022-12-05T16:03:58;16.48;;;4.47;;
37791;SDS011;29527;55.766;37.570;2022-12-05T16:08:59;10.02;;;3.78;;
37791;SDS011;29527;55.766;37.570;2022-12-05T16:11:30;10.70;;;4.68;;
37791;SDS011;29527;55.766;37.570;2022-12-05T16:13:56;11.27;;;4.35;;
37791;SDS011;29527;55.766;37.570;2022-12-05T16:16:26;11.05;;;4.28;;
37791;SDS011;29527;55.766;37.570;2022-12-05T16:18:57;11.38;;;4.50;;
37791;SDS011;29527;55.766;37.570;2022-12-05T16:21:32;10.52;;;4.18;;
37791;SDS011;29527;55.766;37.570;2022-12-05T16:24:04;9.75;;;4.22;;
37791;SDS011;29527;55.766;37.570;2022-12-05T16:26:34;8.48;;;4.00;;
37791;SDS011;29527;55.766;37.570;2022-12-05T16:29:02;12.93;;;4.20;;
37791;SDS011;29527;55.766;37.570;2022-12-05T16:31:28;11.95;;;4.32;;
37791;SDS011;29527;55.766;37.570;2022-12-05T16:33:59;9.65;;;4.57;;
37791;SDS011;29527;55.766;37.570;2022-12-05T16:36:32;15.15;;;4.30;;
37791;SDS011;29527;55.766;37.570;2022-12-05T16:39:05;9.10;;;4.15;;
37791;SDS011;29527;55.766;37.570;2022-12-05T16:41:38;8.30;;;4.53;;
37791;SDS011;29527;55.766;37.570;2022-12-05T16:44:04;7.80;;;4.10;;
37791;SDS011;29527;55.766;37.570;2022-12-05T16:46:50;10.15;;;4.15;;
37791;SDS011;29527;55.766;37.570;2022-12-05T16:49:32;9.60;;;4.03;;
37791;SDS011;29527;55.766;37.570;2022-12-05T16:52:07;13.73;;;3.67;;
37791;SDS011;29527;55.766;37.570;2022-12-05T16:54:38;9.88;;;4.32;;
37791;SDS011;29527;55.766;37.570;2022-12-05T16:57:04;12.50;;;4.25;;
37791;SDS011;29527;55.766;37.570;2022-12-05T16:59:33;10.05;;;4.00;;
37791;SDS011;29527;55.766;37.570;2022-12-05T17:02:01;11.05;;;4.30;;
37791;SDS011;29527;55.766;37.570;2022-12-05T17:04:28;10.80;;;4.45;;
37791;SDS011;29527;55.766;37.570;2022-12-05T17:06:53;14.48;;;4.22;;
37791;SDS011;29527;55.766;37.570;2022-12-05T17:09:19;11.30;;;4.60;;
37791;SDS011;29527;55.766;37.570;2022-12-05T17:11:45;10.45;;;4.22;;
37791;SDS011;29527;55.766;37.570;2022-12-05T17:14:13;13.00;;;4.93;;
37791;SDS011;29527;55.766;37.570;2022-12-05T17:16:41;12.10;;;4.68;;
37791;SDS011;29527;55.766;37.570;2022-12-05T17:19:08;10.07;;;5.15;;
37791;SDS011;29527;55.766;37.570;2022-12-05T17:21:34;11.10;;;4.88;;
37791;SDS011;29527;55.766;37.570;2022-12-05T17:24:00;11.23;;;4.38;;
37791;SDS011;29527;55.766;37.570;2022-12-05T17:26:25;12.40;;;4.60;;
37791;SDS011;29527;55.766;37.570;2022-12-05T17:28:51;13.90;;;5.05;;
37791;SDS011;29527;55.766;37.570;2022-12-05T17:31:20;11.23;;;4.25;;
37791;SDS011;29527;55.766;37.570;2022-12-05T17:33:49;10.13;;;4.45;;
37791;SDS011;29527;55.766;37.570;2022-12-05T17:36:16;12.48;;;4.28;;
37791;SDS011;29527;55.766;37.570;2022-12-05T17:38:42;13.48;;;5.00;;
37791;SDS011;29527;55.766;37.570;2022-12-05T17:41:18;10.90;;;4.53;;
37791;SDS011;29527;55.766;37.570;2022-12-05T17:43:46;9.05;;;4.32;;
37791;SDS011;29527;55.766;37.570;2022-12-05T17:46:15;8.68;;;3.83;;
37791;SDS011;29527;55.766;37.570;2022-12-05T17:48:46;12.40;;;4.40;;
37791;SDS011;29527;55.766;37.570;2022-12-05T17:51:12;9.57;;;4.07;;
37791;SDS011;29527;55.766;37.570;2022-12-05T17:53:39;9.35;;;4.40;;
37791;SDS011;29527;55.766;37.570;2022-12-05T17:56:05;10.75;;;4.03;;
37791;SDS011;29527;55.766;37.570;2022-12-05T17:58:32;10.57;;;3.85;;